Aviation Digital Data Service (ADDS)

Output produced by METARs form (1208 UTC 24 March 2017)
found at http://www.aviationweather.gov/adds/metars/
 
FQBR 241100Z /////KT 9999 SCT018 31/26 Q1010
TAF FQBR 241000Z 2412/2518 12010KT 9999 SCT020 
     BECMG 2418/2420 08006KT 
     BECMG 2506/2508 17012KT SCT015 BKN020 
     BECMG 2512/2514 12010G20KT TN25/2502ZTX28/2512Z
       
FQCH 241100Z 00000KT 9999 BKN015 FEW020CB 28/21 Q1016 RMK CB TO SW/W/NW
TAF FQCH 241000Z 2412/2512 12010KT 9999 BKN015 FEW020CB 
     PROB30 
     TEMPO 2412/2418 5000 -TSRA SCT010 
     BECMG 2418/2420 07008KT 9999 SCT015 
     BECMG 2506/2508 VRB04KT TN21/2502ZTX26/2512Z
       
FQIN 240900Z 03005KT 9999 SCT020 31/23 Q1013
TAF FQIN 241000Z 2412/2512 15010KT 9999 SCT020 
     BECMG 2418/2420 09006KT 
     BECMG 2506/2508 19010G20KT SCT015 BKN020 TN25/2502ZTX31/2512Z
       
FQLC 241200Z 16005KT 6000 TS BKN003 BKN014 SCT020CB BKN080 20/19 Q1019 RMK CB TO ALL/D
TAF FQLC 241000Z 2412/2512 08010KT 9999 SCT015 FEW025CB 
     PROB30 
     TEMPO 2415/2418 5000 TS SCT010 FEW020CB 
     BECMG 2418/2420 32008KT 9999 BKN015 
     PROB30 
     TEMPO 2501/2506 4000 BR SCT008 TN21/2502ZTX25/2512Z
       
FQMA 241200Z 03008KT 9999 SCT020 38/19 Q1008 NOSIG
TAF FQMA 241000Z 2412/2518 12008KT 9999 SCT020 FEW030CB 
     PROB40 
     TEMPO 2416/2502 19010G20KT 5000 -TSRA FEW025CB 
     BECMG 2502/2504 17012KT 9999 SCT015 BKN020 
     PROB30 
     TEMPO 2510/2516 5000 RADZ SCT010 BKN020 
     BECMG 2516/2518 18012KT 9999 BKN020 TN23/2502ZTX33/2512Z
       
TAF FQNC 241000Z 2412/2512 09012KT 9999 SCT020 FEW025CB 
     PROB30 
     TEMPO 2414/2420 5000 -TSRA SCT012 BKN020 
     BECMG 2420/2422 32006KT 9999 BKN020 
     BECMG 2506/2508 08012KT TN23/2502ZTX29/2512Z
       
FQNP 241000Z 06004KT 9999 BKN020 30/23 Q1014
TAF FQNP 241000Z 2412/2518 08010KT 9999 BKN020 FEW025CB 
     PROB30 
     TEMPO 2415/2420 5000 TSRA SCT010 BKN020 
     BECMG 2420/2422 23008KT 9999 SCT015 BKN020 
     BECMG 2506/2508 15010KT 
     BECMG 2512/2514 09008KT SCT020 TN23/2502ZTX30/2512Z
       
FQPB 241100Z 04005KT 010V070 9999 SCT020 FEW025CB BKN090 25/25 Q1012 RMK DZ CB TO N/NE/SW
TAF FQPB 241000Z 2412/2512 05008KT 9999 BKN020 FEW030CB 
     PROB30 
     TEMPO 2412/2415 5000 -SHRA SCT012 FEW025CB 
     BECMG 2415/2417 10010KT 9999 SCT015 BKN020 
     BECMG 2506/2508 17012KT SCT020 TN25/2502ZTX28/2512Z
       
FQQL 241100Z 35002KT 9999 BKN020 32/24 Q1010
TAF FQQL 241000Z 2412/2512 08010KT 9999 SCT020 FEW030CB 
     PROB30 
     TEMPO 2420/2502 5000 -TSRA SCT012 BKN020 
     BECMG 2502/2504 15010KT 9999 BKN020 TN25/2502ZTX32/2512Z
       
FQTT 241100Z 22004KT 170V260 9999 BKN020 31/24 Q1012
TAF FQTT 241000Z 2412/2512 09006KT 9999 SCT020 FEW030CB 
     PROB30 
     TEMPO 2412/2418 5000 -TSRA SCT010 BKN020 FEW025CB 
     BECMG 2418/2420 19010KT 9999 BKN020 FEW020CB 
     BECMG 2500/2502 33006KT SCT020 TN25/2502ZTX31/2512Z
       
TAF FQVL 241000Z 2412/2512 12012KT 9999 SCT020 
     BECMG 2418/2420 04008KT SCT015 BKN020 
     BECMG 2506/2508 VRB04KT SCT020 TN23/2502ZTX30/2512Z